sensor_id;sensor_type;location;lat;lon;timestamp;temperature;humidity
54658;DHT22;56972;43.886;20.354;2022-08-03T00:02:25;538.40;1638.40
54658;DHT22;56972;43.886;20.354;2022-08-03T00:43:49;537.70;1792.00
54658;DHT22;56972;43.886;20.354;2022-08-03T00:46:15;537.60;1843.20
54658;DHT22;56972;43.886;20.354;2022-08-03T00:48:40;512.90;1792.00
54658;DHT22;56972;43.886;20.354;2022-08-03T00:51:06;512.90;1792.00
54658;DHT22;56972;43.886;20.354;2022-08-03T00:53:34;537.60;1817.60
54658;DHT22;56972;43.886;20.354;2022-08-03T00:56:00;512.90;1766.40
54658;DHT22;56972;43.886;20.354;2022-08-03T00:58:26;512.90;1792.00
54658;DHT22;56972;43.886;20.354;2022-08-03T01:00:52;512.90;1792.00
54658;DHT22;56972;43.886;20.354;2022-08-03T01:03:18;537.60;1792.00
54658;DHT22;56972;43.886;20.354;2022-08-03T01:06:15;537.90;1766.40
54658;DHT22;56972;43.886;20.354;2022-08-03T01:09:00;537.90;1766.40
54658;DHT22;56972;43.886;20.354;2022-08-03T01:11:42;537.80;1766.40
54658;DHT22;56972;43.886;20.354;2022-08-03T01:16:57;537.80;1766.40
54658;DHT22;56972;43.886;20.354;2022-08-03T01:25:29;537.80;1766.40
54658;DHT22;56972;43.886;20.354;2022-08-03T01:28:01;537.80;1766.40
54658;DHT22;56972;43.886;20.354;2022-08-03T01:30:35;537.70;1792.00
54658;DHT22;56972;43.886;20.354;2022-08-03T01:33:13;537.70;1792.00
54658;DHT22;56972;43.886;20.354;2022-08-03T01:35:56;537.60;1817.60
54658;DHT22;56972;43.886;20.354;2022-08-03T01:38:28;512.90;1792.00
54658;DHT22;56972;43.886;20.354;2022-08-03T01:53:14;512.90;1817.60
54658;DHT22;56972;43.886;20.354;2022-08-03T01:55:44;512.70;1843.20
54658;DHT22;56972;43.886;20.354;2022-08-03T01:58:11;512.60;1868.80
54658;DHT22;56972;43.886;20.354;2022-08-03T02:00:39;512.50;1894.40
54658;DHT22;56972;43.886;20.354;2022-08-03T02:03:07;512.50;1894.40
54658;DHT22;56972;43.886;20.354;2022-08-03T02:05:33;512.40;1894.40
54658;DHT22;56972;43.886;20.354;2022-08-03T02:08:01;512.60;1894.40
54658;DHT22;56972;43.886;20.354;2022-08-03T02:10:28;512.40;1920.00
54658;DHT22;56972;43.886;20.354;2022-08-03T02:12:56;512.40;1920.00
54658;DHT22;56972;43.886;20.354;2022-08-03T02:15:23;512.50;1920.00
54658;DHT22;56972;43.886;20.354;2022-08-03T02:17:50;512.50;1945.60
54658;DHT22;56972;43.886;20.354;2022-08-03T02:20:18;512.40;1945.60
54658;DHT22;56972;43.886;20.354;2022-08-03T02:27:45;512.50;1945.60
54658;DHT22;56972;43.886;20.354;2022-08-03T02:30:14;512.30;1945.60
54658;DHT22;56972;43.886;20.354;2022-08-03T02:32:43;512.10;1996.80
54658;DHT22;56972;43.886;20.354;2022-08-03T02:35:14;512.00;2022.40
54658;DHT22;56972;43.886;20.354;2022-08-03T02:37:43;487.30;2022.40
54658;DHT22;56972;43.886;20.354;2022-08-03T02:40:12;487.30;2048.00
54658;DHT22;56972;43.886;20.354;2022-08-03T02:42:39;487.30;2048.00
54658;DHT22;56972;43.886;20.354;2022-08-03T02:45:09;512.00;2022.40
54658;DHT22;56972;43.886;20.354;2022-08-03T02:47:40;512.00;2048.00
54658;DHT22;56972;43.886;20.354;2022-08-03T02:50:10;487.20;2073.60
54658;DHT22;56972;43.886;20.354;2022-08-03T02:52:37;487.10;2099.20
54658;DHT22;56972;43.886;20.354;2022-08-03T02:55:06;487.10;2099.20
54658;DHT22;56972;43.886;20.354;2022-08-03T02:57:35;487.10;2099.20
54658;DHT22;56972;43.886;20.354;2022-08-03T03:00:03;487.00;2124.80
54658;DHT22;56972;43.886;20.354;2022-08-03T03:02:29;487.10;2124.80
54658;DHT22;56972;43.886;20.354;2022-08-03T03:04:55;487.00;2124.80
54658;DHT22;56972;43.886;20.354;2022-08-03T03:07:22;487.10;2099.20
54658;DHT22;56972;43.886;20.354;2022-08-03T03:09:48;487.10;2124.80
54658;DHT22;56972;43.886;20.354;2022-08-03T03:12:15;487.10;2124.80
54658;DHT22;56972;43.886;20.354;2022-08-03T03:14:42;487.00;2124.80
54658;DHT22;56972;43.886;20.354;2022-08-03T03:17:09;487.00;2124.80
54658;DHT22;56972;43.886;20.354;2022-08-03T03:19:36;487.10;2099.20
54658;DHT22;56972;43.886;20.354;2022-08-03T03:22:04;487.10;2099.20
54658;DHT22;56972;43.886;20.354;2022-08-03T03:24:31;487.00;2124.80
54658;DHT22;56972;43.886;20.354;2022-08-03T03:26:57;487.00;2124.80
54658;DHT22;56972;43.886;20.354;2022-08-03T03:29:23;487.00;2124.80
54658;DHT22;56972;43.886;20.354;2022-08-03T03:31:50;487.10;2124.80
54658;DHT22;56972;43.886;20.354;2022-08-03T03:51:20;486.80;2176.00
54658;DHT22;56972;43.886;20.354;2022-08-03T04:51:42;537.60;2048.00
54658;DHT22;56972;43.886;20.354;2022-08-03T04:54:12;512.90;1996.80
54658;DHT22;56972;43.886;20.354;2022-08-03T04:56:41;512.90;2022.40
54658;DHT22;56972;43.886;20.354;2022-08-03T04:59:08;512.70;2022.40
54658;DHT22;56972;43.886;20.354;2022-08-03T05:01:34;512.80;2022.40
54658;DHT22;56972;43.886;20.354;2022-08-03T05:04:00;512.80;2048.00
54658;DHT22;56972;43.886;20.354;2022-08-03T05:06:25;512.80;2048.00
54658;DHT22;56972;43.886;20.354;2022-08-03T05:08:51;512.90;2048.00
54658;DHT22;56972;43.886;20.354;2022-08-03T15:17:05;922.50;281.60
54658;DHT22;56972;43.886;20.354;2022-08-03T15:19:31;922.40;281.60
54658;DHT22;56972;43.886;20.354;2022-08-03T15:21:57;921.90;281.60
54658;DHT22;56972;43.886;20.354;2022-08-03T15:29:16;871.30;256.00
